Papaaloa, HI (96780)

6:44 PM HST on December 19, 2014 (GMT -1000)
Hamakua Coast | Change Station
CLOSE
Current Station
Personal Weather Station
Location: Ninole, HI
Elevation: 1120 ft
Nearby Weather Stations

Elev 1120 ft 19.92 °N, 155.18 °W | Updated 11 minutes ago

Mostly Cloudy
Mostly Cloudy
69.3 °F
Feels Like 69.3 °F
N
6.0
Wind Variable Wind from SE

Today
High -- | Low -- °F
--% Chance of Precip.
Yesterday
High -- | Low -- °F
Precip. -- in
6:50 AM 5:45 PM
Waning Crescent, 4% visible
Pressure 30.05 in
Visibility 10.0 miles
Clouds Mostly Cloudy 4800 ft
Dew Point 67 °F
Humidity 93%
Rainfall 0.11 in
Snow Depth Not available.
UV 0 out of 12
Pollen Not available.
Air Quality Not available.
Flu Activity Not available.
METAR PHTO 200353Z 19003KT 10SM BKN048 24/19 A3005 RMK AO2 SLP174 T02440194 $

More Conditions Fewer Conditions

Pressure 30.05 in
Visibility 10.0 miles
Clouds Mostly Cloudy 4800 ft
Dew Point 67 °F
Humidity 93%
Rainfall 0.11 in
Snow Depth Not available.
UV 0 out of 12
Pollen Not available.
Air Quality Not available.
Flu Activity Not available.
METAR PHTO 200353Z 19003KT 10SM BKN048 24/19 A3005 RMK AO2 SLP174 T02440194 $

More Conditions Fewer Conditions

10-Day Weather Forecast

Almanac

Astronomy

Dec. 19, 2014 Rise Set
Actual Time
Civil Twilight
Nautical Twilight
Astronomical Twilight
Moon
Length of Visible Light
Length of Day
Tomorrow will be .
, % of the Moon is Illuminated

Today's Extremes

State Highs State Lows

Community

WunderPhotos

Upload Photos

1,779,130 photos uploaded!

WunderBlogs® & News

Nearby

Air Quality

  Air Quality AQ Index Pollutant
Not available.

Snow Depth

Station Depth Elevation

Earthquake Activity

City Distance Mag. Time & Date
Minimum magnitude displayed is 2.5.

Coastal Water Temperatures

Place Temperature

Nearby Weather Stations